createdAt,value
2023-02-11T00:01:10.327Z,19.62
2023-02-11T00:03:41.086Z,19.62
2023-02-11T00:06:15.004Z,19.62
2023-02-11T00:08:45.079Z,19.61
2023-02-11T00:11:19.667Z,19.60
2023-02-11T00:13:52.364Z,19.60
2023-02-11T00:16:23.891Z,19.59
2023-02-11T00:18:55.478Z,19.57
2023-02-11T00:21:28.537Z,19.57
2023-02-11T00:24:02.182Z,19.56
2023-02-11T00:26:36.442Z,19.54
2023-02-11T00:29:08.566Z,19.54
2023-02-11T00:31:40.100Z,19.53
2023-02-11T00:34:11.046Z,19.52
2023-02-11T00:36:58.695Z,19.52
2023-02-11T00:39:29.887Z,19.51
2023-02-11T00:42:00.731Z,19.51
2023-02-11T00:44:32.721Z,19.49
2023-02-11T00:47:03.201Z,19.48
2023-02-11T00:49:33.717Z,19.48
2023-02-11T00:52:04.282Z,19.48
2023-02-11T00:54:35.224Z,19.46
2023-02-11T00:57:05.447Z,19.46
2023-02-11T00:59:38.074Z,19.45
2023-02-11T01:02:08.188Z,19.45
2023-02-11T01:04:38.631Z,19.44
2023-02-11T01:07:09.417Z,19.43
2023-02-11T01:09:41.394Z,19.43
2023-02-11T01:12:12.125Z,19.43
2023-02-11T01:14:44.676Z,19.42
2023-02-11T01:17:15.580Z,19.42
2023-02-11T01:19:46.245Z,19.40
2023-02-11T01:22:17.234Z,19.40
2023-02-11T01:24:47.761Z,19.41
2023-02-11T01:27:18.012Z,19.39
2023-02-11T01:29:50.798Z,19.39
2023-02-11T01:32:21.585Z,19.39
2023-02-11T01:34:52.379Z,19.37
2023-02-11T01:37:22.256Z,19.37
2023-02-11T01:39:53.646Z,19.36
2023-02-11T01:42:26.721Z,19.36
2023-02-11T01:45:03.395Z,19.34
2023-02-11T01:47:33.938Z,19.34
2023-02-11T01:50:06.168Z,19.32
2023-02-11T01:52:41.471Z,19.32
2023-02-11T01:55:33.189Z,19.31
2023-02-11T01:58:08.321Z,19.29
2023-02-11T02:00:43.201Z,19.28
2023-02-11T02:03:19.860Z,19.27
2023-02-11T02:06:00.094Z,19.28
2023-02-11T02:08:41.852Z,19.28
2023-02-11T02:11:12.408Z,19.27
2023-02-11T02:13:44.968Z,19.27
2023-02-11T02:16:22.306Z,19.26
2023-02-11T02:19:05.800Z,19.25
2023-02-11T02:22:29.459Z,19.21
2023-02-11T02:25:22.198Z,19.17
2023-02-11T02:28:05.908Z,19.16
2023-02-11T02:31:28.297Z,19.12
2023-02-11T02:34:08.828Z,19.10
2023-02-11T02:36:54.525Z,19.10
2023-02-11T02:39:31.772Z,19.10
2023-02-11T02:42:02.962Z,19.10
2023-02-11T02:44:34.641Z,19.10
2023-02-11T02:47:05.778Z,19.09
2023-02-11T02:49:38.352Z,19.09
2023-02-11T02:52:31.839Z,19.09
2023-02-11T02:55:37.776Z,19.08
2023-02-11T02:58:52.719Z,19.05
2023-02-11T03:01:42.525Z,19.02
2023-02-11T03:04:25.530Z,19.01
2023-02-11T03:07:11.320Z,18.99
2023-02-11T03:09:52.330Z,18.96
2023-02-11T03:12:26.100Z,18.92
2023-02-11T03:14:56.241Z,18.88
2023-02-11T03:17:30.617Z,18.87
2023-02-11T03:20:04.754Z,18.81
2023-02-11T03:22:44.265Z,18.78
2023-02-11T03:25:15.303Z,18.74
2023-02-11T03:27:56.930Z,18.71
2023-02-11T03:30:37.673Z,18.68
2023-02-11T03:33:16.336Z,18.67
2023-02-11T03:35:56.651Z,18.65
2023-02-11T03:38:36.086Z,18.64
2023-02-11T03:41:10.456Z,18.63
2023-02-11T03:43:47.305Z,18.63
2023-02-11T03:46:25.764Z,18.62
2023-02-11T03:49:02.671Z,18.63
2023-02-11T03:51:39.724Z,18.63
2023-02-11T03:54:19.298Z,18.65
2023-02-11T03:56:57.567Z,18.65
2023-02-11T03:59:28.051Z,18.65
2023-02-11T04:01:59.870Z,18.67
2023-02-11T04:04:30.518Z,18.68
2023-02-11T04:07:01.698Z,18.68
2023-02-11T04:09:39.532Z,18.67
2023-02-11T04:12:11.026Z,18.67
2023-02-11T04:14:41.676Z,18.67
2023-02-11T04:17:12.493Z,18.66
2023-02-11T04:19:43.158Z,18.66
2023-02-11T04:22:14.715Z,18.66
2023-02-11T04:24:47.426Z,18.67
2023-02-11T04:27:17.713Z,18.67
2023-02-11T04:29:48.694Z,18.67
2023-02-11T04:32:19.614Z,18.69
2023-02-11T04:34:50.024Z,18.70
2023-02-11T04:37:20.051Z,18.70
2023-02-11T04:39:52.562Z,18.72
2023-02-11T04:42:22.767Z,18.73
2023-02-11T04:44:53.156Z,18.74
2023-02-11T04:47:23.310Z,18.75
2023-02-11T04:49:54.483Z,18.75
2023-02-11T04:52:25.500Z,18.78
2023-02-11T04:54:58.432Z,18.79
2023-02-11T04:57:29.881Z,18.79
2023-02-11T05:00:00.450Z,18.79
2023-02-11T05:02:31.109Z,18.79
2023-02-11T05:05:01.922Z,18.80
2023-02-11T05:07:32.481Z,18.81
2023-02-11T05:10:05.012Z,18.82
2023-02-11T05:12:34.992Z,18.83
2023-02-11T05:15:05.455Z,18.87
2023-02-11T05:17:36.285Z,18.91
2023-02-11T05:20:08.005Z,18.98
2023-02-11T05:22:39.082Z,19.05
2023-02-11T05:25:13.194Z,19.13
2023-02-11T05:27:43.920Z,19.23
2023-02-11T05:30:15.384Z,19.32
2023-02-11T05:32:45.539Z,19.41
2023-02-11T05:35:16.235Z,19.53
2023-02-11T05:37:47.403Z,19.62
2023-02-11T05:40:20.244Z,19.74
2023-02-11T05:42:50.741Z,19.85
2023-02-11T05:45:21.484Z,19.96
2023-02-11T05:47:52.137Z,20.07
2023-02-11T05:50:22.904Z,20.20
2023-02-11T05:52:53.844Z,20.31
2023-02-11T05:55:27.277Z,20.43
2023-02-11T05:57:57.058Z,20.54
2023-02-11T06:00:28.760Z,20.66
2023-02-11T06:02:59.293Z,20.79
2023-02-11T06:05:30.300Z,20.90
2023-02-11T06:08:01.308Z,21.03
2023-02-11T06:10:33.936Z,21.16
2023-02-11T06:13:05.323Z,21.27
2023-02-11T06:15:35.895Z,21.39
2023-02-11T06:18:06.763Z,21.51
2023-02-11T06:20:37.857Z,21.63
2023-02-11T06:23:08.300Z,21.75
2023-02-11T06:25:41.648Z,21.88
2023-02-11T06:28:12.714Z,21.98
2023-02-11T06:30:44.182Z,22.08
2023-02-11T06:33:16.358Z,22.17
2023-02-11T06:35:46.032Z,22.26
2023-02-11T06:38:16.474Z,22.36
2023-02-11T06:40:53.247Z,22.45
2023-02-11T06:43:23.164Z,22.53
2023-02-11T06:45:56.399Z,22.63
2023-02-11T06:48:26.804Z,22.71
2023-02-11T06:50:56.991Z,22.81
2023-02-11T06:53:27.618Z,22.91
2023-02-11T06:56:05.354Z,23.00
2023-02-11T06:58:37.418Z,23.08
2023-02-11T07:01:10.271Z,23.17
2023-02-11T07:03:43.539Z,23.26
2023-02-11T07:06:20.647Z,23.35
2023-02-11T07:08:51.598Z,23.41
2023-02-11T07:11:27.535Z,23.50
2023-02-11T07:14:03.490Z,23.58
2023-02-11T07:16:35.605Z,23.66
2023-02-11T07:19:06.191Z,23.75
2023-02-11T07:21:37.134Z,23.86
2023-02-11T07:24:11.185Z,23.96
2023-02-11T07:26:45.169Z,24.05
2023-02-11T07:29:15.358Z,24.11
2023-02-11T07:31:45.466Z,24.17
2023-02-11T07:34:16.124Z,24.25
2023-02-11T07:36:46.653Z,24.33
2023-02-11T07:39:17.410Z,24.41
2023-02-11T07:41:49.794Z,24.49
2023-02-11T07:44:20.409Z,24.57
2023-02-11T07:46:51.210Z,24.63
2023-02-11T07:49:21.811Z,24.70
2023-02-11T07:51:52.366Z,24.77
2023-02-11T07:54:22.485Z,24.81
2023-02-11T07:56:55.386Z,24.85
2023-02-11T07:59:25.791Z,24.90
2023-02-11T08:01:56.461Z,24.94
2023-02-11T08:04:27.057Z,24.99
2023-02-11T08:06:59.380Z,25.03
2023-02-11T08:09:29.642Z,25.06
2023-02-11T08:12:02.536Z,25.09
2023-02-11T08:14:33.787Z,25.10
2023-02-11T08:17:04.044Z,25.06
2023-02-11T08:19:35.348Z,25.05
2023-02-11T08:22:06.560Z,25.04
2023-02-11T08:24:37.155Z,25.01
2023-02-11T08:27:09.766Z,24.98
2023-02-11T08:29:39.793Z,24.97
2023-02-11T08:32:10.526Z,24.96
2023-02-11T08:34:40.392Z,24.98
2023-02-11T08:37:11.492Z,24.98
2023-02-11T08:39:42.235Z,24.99
2023-02-11T08:42:15.852Z,24.99
2023-02-11T08:44:46.961Z,25.00
2023-02-11T08:47:18.025Z,24.99
2023-02-11T08:49:48.797Z,24.97
2023-02-11T08:52:19.602Z,24.97
2023-02-11T08:54:49.865Z,24.95
2023-02-11T08:57:23.191Z,24.95
2023-02-11T08:59:54.590Z,24.94
2023-02-11T09:02:25.881Z,24.95
2023-02-11T09:04:56.463Z,24.95
2023-02-11T09:07:26.546Z,24.97
2023-02-11T09:09:57.467Z,24.96
2023-02-11T09:12:30.703Z,24.95
2023-02-11T09:15:01.068Z,24.90
2023-02-11T09:17:32.260Z,24.83
2023-02-11T09:20:04.520Z,24.78
2023-02-11T09:22:35.779Z,24.76
2023-02-11T09:25:05.888Z,24.74
2023-02-11T09:27:37.992Z,24.74
2023-02-11T09:30:09.873Z,24.70
2023-02-11T09:32:41.791Z,24.66
2023-02-11T09:35:12.592Z,24.62
2023-02-11T09:37:43.279Z,24.61
2023-02-11T09:40:15.476Z,24.61
2023-02-11T09:43:00.407Z,24.56
2023-02-11T09:45:34.168Z,24.50
2023-02-11T09:48:12.619Z,24.46
2023-02-11T09:50:53.267Z,24.45
2023-02-11T09:53:28.257Z,24.45
2023-02-11T09:56:02.158Z,24.44
2023-02-11T09:58:39.727Z,24.42
2023-02-11T10:01:25.942Z,24.42
2023-02-11T10:04:10.244Z,24.41
2023-02-11T10:06:47.068Z,24.39
2023-02-11T10:09:48.270Z,24.37
2023-02-11T10:12:45.476Z,24.33
2023-02-11T10:15:46.842Z,24.27
2023-02-11T10:18:42.808Z,24.20
2023-02-11T10:21:41.791Z,24.15
2023-02-11T10:24:16.521Z,24.13
2023-02-11T10:26:48.588Z,24.10
2023-02-11T10:29:38.143Z,24.10
2023-02-11T10:32:29.496Z,24.09
2023-02-11T10:35:06.286Z,24.04
2023-02-11T10:37:36.995Z,23.99
2023-02-11T10:40:14.533Z,23.96
2023-02-11T10:42:48.704Z,23.94
2023-02-11T10:45:31.924Z,23.93
2023-02-11T10:48:06.929Z,23.89
2023-02-11T10:50:38.288Z,23.86
2023-02-11T10:53:26.454Z,23.85
2023-02-11T10:56:00.306Z,23.83
2023-02-11T10:58:37.580Z,23.84
2023-02-11T11:01:23.912Z,23.84
2023-02-11T11:04:00.452Z,23.83
2023-02-11T11:06:36.624Z,23.81
2023-02-11T11:09:07.732Z,23.79
2023-02-11T11:11:55.756Z,23.80
2023-02-11T11:14:30.070Z,23.81
2023-02-11T11:17:00.122Z,23.82
2023-02-11T11:19:33.686Z,23.79
2023-02-11T11:22:04.532Z,23.77
2023-02-11T11:24:43.131Z,23.77
2023-02-11T11:27:23.672Z,23.75
2023-02-11T11:29:59.061Z,23.75
2023-02-11T11:32:34.632Z,23.74
2023-02-11T11:35:23.572Z,23.69
2023-02-11T11:38:02.015Z,23.63
2023-02-11T11:40:34.238Z,23.58
2023-02-11T11:43:23.413Z,23.53
2023-02-11T11:45:58.698Z,23.50
2023-02-11T11:48:34.113Z,23.51
2023-02-11T11:51:12.456Z,23.50
2023-02-11T11:53:51.011Z,23.46
2023-02-11T11:56:26.354Z,23.44
2023-02-11T11:58:57.813Z,23.44
2023-02-11T12:01:44.540Z,23.45
2023-02-11T12:04:49.464Z,23.44
2023-02-11T12:07:39.866Z,23.45
2023-02-11T12:10:46.754Z,23.46
2023-02-11T12:13:33.146Z,23.48
2023-02-11T12:16:17.910Z,23.49
2023-02-11T12:19:37.163Z,23.50
2023-02-11T12:22:41.100Z,23.50
2023-02-11T12:25:29.874Z,23.51
2023-02-11T12:28:19.818Z,23.52
2023-02-11T12:31:16.627Z,23.53
2023-02-11T12:34:26.745Z,23.54
2023-02-11T12:37:20.799Z,23.54
2023-02-11T12:40:12.133Z,23.54
2023-02-11T12:43:20.346Z,23.54
2023-02-11T12:46:36.511Z,23.54
2023-02-11T12:49:34.383Z,23.53
2023-02-11T12:52:25.768Z,23.52
2023-02-11T12:55:04.046Z,23.51
2023-02-11T12:57:39.141Z,23.52
2023-02-11T13:00:22.593Z,23.50
2023-02-11T13:03:02.972Z,23.47
2023-02-11T13:05:40.966Z,23.46
2023-02-11T13:08:19.023Z,23.45
2023-02-11T13:10:57.434Z,23.44
2023-02-11T13:13:36.892Z,23.45
2023-02-11T13:16:15.680Z,23.43
2023-02-11T13:18:55.759Z,23.41
2023-02-11T13:21:56.847Z,23.41
2023-02-11T13:24:41.290Z,23.40
2023-02-11T13:27:34.100Z,23.39
2023-02-11T13:30:33.771Z,23.37
2023-02-11T13:33:20.534Z,23.35
2023-02-11T13:36:22.200Z,23.30
2023-02-11T13:39:04.645Z,23.28
2023-02-11T13:41:42.986Z,23.26
2023-02-11T13:44:38.604Z,23.24
2023-02-11T13:47:10.447Z,23.24
2023-02-11T13:49:44.347Z,23.23
2023-02-11T13:52:28.676Z,23.21
2023-02-11T13:55:07.437Z,23.20
2023-02-11T13:57:42.096Z,23.20
2023-02-11T14:00:54.845Z,23.17
2023-02-11T14:03:53.540Z,23.16
2023-02-11T14:06:45.256Z,23.14
2023-02-11T14:09:43.511Z,23.11
2023-02-11T14:12:35.351Z,23.08
2023-02-11T14:15:31.425Z,23.06
2023-02-11T14:18:04.506Z,23.05
2023-02-11T14:20:48.503Z,23.04
2023-02-11T14:23:29.434Z,23.02
2023-02-11T14:26:32.503Z,23.01
2023-02-11T14:29:15.356Z,23.00
2023-02-11T14:31:56.851Z,22.99
2023-02-11T14:34:56.156Z,22.97
2023-02-11T14:37:50.813Z,22.95
2023-02-11T14:40:32.773Z,22.93
2023-02-11T14:43:15.493Z,22.92
2023-02-11T14:45:56.587Z,22.92
2023-02-11T14:48:43.289Z,22.91
2023-02-11T14:51:23.784Z,22.89
2023-02-11T14:53:58.207Z,22.88
2023-02-11T14:56:35.696Z,22.87
2023-02-11T14:59:06.234Z,22.85
2023-02-11T15:01:43.039Z,22.85
2023-02-11T15:04:29.066Z,22.84
2023-02-11T15:07:12.442Z,22.82
2023-02-11T15:09:46.678Z,22.79
2023-02-11T15:12:24.206Z,22.77
2023-02-11T15:14:58.992Z,22.76
2023-02-11T15:17:34.880Z,22.75
2023-02-11T15:20:05.441Z,22.72
2023-02-11T15:22:40.381Z,22.71
2023-02-11T15:25:16.655Z,22.68
2023-02-11T15:27:49.508Z,22.66
2023-02-11T15:30:36.242Z,22.64
2023-02-11T15:33:10.201Z,22.61
2023-02-11T15:35:43.245Z,22.59
2023-02-11T15:38:16.554Z,22.57
2023-02-11T15:40:57.338Z,22.55
2023-02-11T15:43:43.908Z,22.52
2023-02-11T15:46:19.164Z,22.50
2023-02-11T15:48:53.789Z,22.47
2023-02-11T15:51:29.925Z,22.44
2023-02-11T15:54:07.218Z,22.43
2023-02-11T15:56:44.167Z,22.41
2023-02-11T15:59:24.865Z,22.39
2023-02-11T16:01:57.779Z,22.37
2023-02-11T16:04:29.809Z,22.36
2023-02-11T16:07:00.848Z,22.33
2023-02-11T16:10:00.857Z,22.31
2023-02-11T16:12:31.628Z,22.29
2023-02-11T16:15:04.382Z,22.27
2023-02-11T16:17:35.015Z,22.26
2023-02-11T16:20:06.483Z,22.25
2023-02-11T16:22:38.656Z,22.23
2023-02-11T16:25:22.058Z,22.22
2023-02-11T16:27:56.234Z,22.20
2023-02-11T16:30:34.623Z,22.18
2023-02-11T16:33:05.990Z,22.16
2023-02-11T16:35:37.879Z,22.14
2023-02-11T16:38:08.582Z,22.13
2023-02-11T16:40:40.671Z,22.12
2023-02-11T16:43:10.978Z,22.10
2023-02-11T16:45:42.429Z,22.08
2023-02-11T16:48:19.116Z,22.07
2023-02-11T16:50:53.542Z,22.06
2023-02-11T16:53:28.153Z,22.04
2023-02-11T16:56:02.025Z,22.02
2023-02-11T16:58:34.924Z,22.00
2023-02-11T17:01:05.280Z,21.98
2023-02-11T17:03:40.667Z,21.97
2023-02-11T17:06:14.230Z,21.95
2023-02-11T17:08:45.074Z,21.94
2023-02-11T17:11:17.878Z,21.94
2023-02-11T17:13:49.179Z,21.93
2023-02-11T17:16:22.946Z,21.91
2023-02-11T17:18:53.327Z,21.91
2023-02-11T17:21:28.202Z,21.89
2023-02-11T17:24:03.444Z,21.88
2023-02-11T17:26:37.334Z,21.86
2023-02-11T17:29:09.368Z,21.85
2023-02-11T17:31:40.706Z,21.83
2023-02-11T17:34:11.435Z,21.82
2023-02-11T17:36:42.622Z,21.81
2023-02-11T17:39:14.317Z,21.79
2023-02-11T17:41:47.197Z,21.78
2023-02-11T17:44:17.569Z,21.77
2023-02-11T17:46:47.801Z,21.76
2023-02-11T17:49:18.424Z,21.75
2023-02-11T17:51:49.795Z,21.73
2023-02-11T17:54:22.439Z,21.72
2023-02-11T17:56:58.062Z,21.70
2023-02-11T17:59:32.179Z,21.67
2023-02-11T18:02:02.566Z,21.65
2023-02-11T18:04:34.850Z,21.63
2023-02-11T18:07:05.092Z,21.63
2023-02-11T18:09:40.593Z,21.62
2023-02-11T18:12:13.727Z,21.59
2023-02-11T18:14:44.626Z,21.58
2023-02-11T18:17:14.780Z,21.56
2023-02-11T18:19:45.331Z,21.56
2023-02-11T18:22:16.328Z,21.55
2023-02-11T18:24:47.653Z,21.53
2023-02-11T18:27:19.836Z,21.52
2023-02-11T18:29:55.134Z,21.50
2023-02-11T18:32:25.464Z,21.48
2023-02-11T18:34:55.588Z,21.47
2023-02-11T18:37:26.213Z,21.46
2023-02-11T18:39:56.475Z,21.45
2023-02-11T18:42:29.163Z,21.44
2023-02-11T18:44:59.827Z,21.42
2023-02-11T18:47:30.495Z,21.41
2023-02-11T18:50:01.533Z,21.40
2023-02-11T18:52:32.185Z,21.38
2023-02-11T18:55:03.216Z,21.38
2023-02-11T18:57:37.415Z,21.36
2023-02-11T19:00:10.589Z,21.34
2023-02-11T19:02:41.074Z,21.33
2023-02-11T19:05:11.995Z,21.31
2023-02-11T19:07:41.828Z,21.30
2023-02-11T19:10:14.115Z,21.28
2023-02-11T19:12:46.562Z,21.28
2023-02-11T19:15:18.031Z,21.26
2023-02-11T19:17:48.562Z,21.25
2023-02-11T19:20:19.915Z,21.24
2023-02-11T19:22:51.571Z,21.22
2023-02-11T19:25:22.022Z,21.21
2023-02-11T19:27:54.358Z,21.20
2023-02-11T19:30:24.626Z,21.18
2023-02-11T19:32:57.709Z,21.17
2023-02-11T19:35:28.380Z,21.15
2023-02-11T19:37:59.699Z,21.13
2023-02-11T19:40:30.455Z,21.12
2023-02-11T19:43:03.523Z,21.10
2023-02-11T19:45:36.171Z,21.09
2023-02-11T19:48:06.739Z,21.08
2023-02-11T19:50:37.314Z,21.07
2023-02-11T19:53:08.039Z,21.06
2023-02-11T19:55:38.203Z,21.03
2023-02-11T19:58:11.297Z,21.02
2023-02-11T20:00:41.341Z,21.00
2023-02-11T20:03:12.030Z,20.99
2023-02-11T20:05:47.422Z,20.96
2023-02-11T20:08:19.690Z,20.95
2023-02-11T20:10:50.385Z,20.94
2023-02-11T20:13:23.749Z,20.93
2023-02-11T20:15:54.767Z,20.91
2023-02-11T20:18:25.604Z,20.88
2023-02-11T20:20:56.116Z,20.87
2023-02-11T20:23:26.733Z,20.87
2023-02-11T20:25:57.609Z,20.85
2023-02-11T20:28:30.061Z,20.83
2023-02-11T20:31:01.196Z,20.82
2023-02-11T20:33:32.506Z,20.80
2023-02-11T20:36:06.137Z,20.78
2023-02-11T20:38:36.814Z,20.77
2023-02-11T20:41:10.659Z,20.76
2023-02-11T20:43:46.193Z,20.76
2023-02-11T20:46:19.368Z,20.74
2023-02-11T20:48:50.232Z,20.73
2023-02-11T20:51:24.016Z,20.72
2023-02-11T20:53:55.701Z,20.70
2023-02-11T20:56:29.240Z,20.70
2023-02-11T20:59:06.071Z,20.68
2023-02-11T21:01:41.526Z,20.66
2023-02-11T21:04:16.363Z,20.65
2023-02-11T21:06:49.455Z,20.63
2023-02-11T21:09:23.219Z,20.62
2023-02-11T21:11:55.760Z,20.59
2023-02-11T21:14:29.473Z,20.58
2023-02-11T21:17:00.780Z,20.55
2023-02-11T21:19:31.682Z,20.54
2023-02-11T21:22:02.658Z,20.54
2023-02-11T21:24:33.344Z,20.52
2023-02-11T21:27:03.877Z,20.49
2023-02-11T21:29:45.747Z,20.48
2023-02-11T21:32:23.122Z,20.44
2023-02-11T21:34:57.427Z,20.43
2023-02-11T21:37:32.435Z,20.40
2023-02-11T21:40:08.740Z,20.37
2023-02-11T21:42:39.031Z,20.35
2023-02-11T21:45:14.177Z,20.33
2023-02-11T21:47:44.696Z,20.30
2023-02-11T21:50:17.988Z,20.29
2023-02-11T21:52:49.931Z,20.27
2023-02-11T21:55:31.065Z,20.26
2023-02-11T21:58:01.834Z,20.23
2023-02-11T22:00:37.695Z,20.22
2023-02-11T22:03:08.487Z,20.20
2023-02-11T22:05:43.323Z,20.17
2023-02-11T22:08:13.997Z,20.15
2023-02-11T22:10:44.822Z,20.14
2023-02-11T22:13:15.592Z,20.12
2023-02-11T22:15:47.668Z,20.11
2023-02-11T22:18:18.528Z,20.09
2023-02-11T22:21:00.209Z,20.06
2023-02-11T22:23:31.853Z,20.03
2023-02-11T22:26:08.216Z,20.01
2023-02-11T22:28:41.017Z,19.99
2023-02-11T22:31:18.254Z,19.98
2023-02-11T22:33:49.181Z,19.95
2023-02-11T22:36:22.888Z,19.94
2023-02-11T22:38:54.591Z,19.92
2023-02-11T22:41:25.457Z,19.91
2023-02-11T22:43:56.258Z,19.89
2023-02-11T22:46:30.040Z,19.87
2023-02-11T22:49:00.903Z,19.85
2023-02-11T22:51:33.117Z,19.84
2023-02-11T22:54:07.793Z,19.84
2023-02-11T22:56:38.300Z,19.82
2023-02-11T22:59:11.322Z,19.80
2023-02-11T23:01:44.597Z,19.81
2023-02-11T23:04:17.389Z,19.80
2023-02-11T23:06:50.792Z,19.79
2023-02-11T23:09:21.652Z,19.79
2023-02-11T23:11:55.566Z,19.79
2023-02-11T23:14:26.110Z,19.77
2023-02-11T23:16:58.434Z,19.76
2023-02-11T23:19:28.592Z,19.75
2023-02-11T23:21:59.333Z,19.74
2023-02-11T23:24:30.094Z,19.73
2023-02-11T23:27:00.215Z,19.70
2023-02-11T23:29:30.925Z,19.71
2023-02-11T23:32:03.693Z,19.70
2023-02-11T23:34:34.447Z,19.69
2023-02-11T23:37:04.790Z,19.69
2023-02-11T23:39:34.816Z,19.67
2023-02-11T23:42:05.848Z,19.65
2023-02-11T23:44:36.625Z,19.64
2023-02-11T23:47:09.474Z,19.61
2023-02-11T23:49:39.309Z,19.59
2023-02-11T23:52:09.801Z,19.56
2023-02-11T23:54:40.563Z,19.53
2023-02-11T23:57:11.224Z,19.51
2023-02-11T23:59:43.213Z,19.49
